createdAt,value
2022-09-20T00:01:54.797Z,99701.87
2022-09-20T00:04:23.582Z,99702.38
2022-09-20T00:06:53.067Z,99701.14
2022-09-20T00:09:21.944Z,99698.30
2022-09-20T00:11:52.178Z,99702.94
2022-09-20T00:14:22.918Z,99704.52
2022-09-20T00:16:51.979Z,99705.33
2022-09-20T00:19:24.042Z,99706.73
2022-09-20T00:21:52.970Z,99710.83
2022-09-20T00:24:22.154Z,99714.57
2022-09-20T00:26:52.162Z,99711.27
2022-09-20T00:29:22.198Z,99716.34
2022-09-20T00:31:51.168Z,99719.95
2022-09-20T00:34:38.338Z,99718.31
2022-09-20T00:37:08.554Z,99715.61
2022-09-20T00:39:37.353Z,99716.73
2022-09-20T00:42:08.172Z,99717.92
2022-09-20T00:45:02.185Z,99721.89
2022-09-20T00:47:51.707Z,99722.85
2022-09-20T00:50:23.554Z,99724.23
2022-09-20T00:53:16.542Z,99722.38
2022-09-20T00:55:54.596Z,99720.20
2022-09-20T00:58:26.967Z,99719.73
2022-09-20T01:00:58.459Z,99716.63
2022-09-20T01:03:31.709Z,99714.88
2022-09-20T01:06:06.735Z,99716.41
2022-09-20T01:08:36.980Z,99712.66
2022-09-20T01:11:06.286Z,99713.02
2022-09-20T01:13:35.684Z,99715.10
2022-09-20T01:16:06.518Z,99718.45
2022-09-20T01:18:38.731Z,99723.14
2022-09-20T01:21:11.331Z,99721.66
2022-09-20T01:24:16.996Z,99724.82
2022-09-20T01:26:53.962Z,99724.47
2022-09-20T01:29:39.908Z,99728.29
2022-09-20T01:32:13.547Z,99724.57
2022-09-20T01:34:48.755Z,99721.83
2022-09-20T01:37:49.092Z,99720.10
2022-09-20T01:40:33.409Z,99726.81
2022-09-20T01:43:08.003Z,99727.72
2022-09-20T01:45:47.231Z,99728.08
2022-09-20T01:48:31.499Z,99728.75
2022-09-20T01:51:40.042Z,99733.01
2022-09-20T01:54:28.692Z,99736.00
2022-09-20T01:57:25.062Z,99737.36
2022-09-20T02:00:18.047Z,99738.50
2022-09-20T02:03:27.147Z,99741.80
2022-09-20T02:06:18.164Z,99741.45
2022-09-20T02:09:23.659Z,99740.64
2022-09-20T02:12:24.700Z,99740.27
2022-09-20T02:15:42.824Z,99742.27
2022-09-20T02:18:30.092Z,99743.89
2022-09-20T02:21:45.879Z,99744.27
2022-09-20T02:24:54.401Z,99750.85
2022-09-20T02:30:56.815Z,99752.59
2022-09-20T02:33:39.356Z,99751.52
2022-09-20T02:36:23.172Z,99750.39
2022-09-20T02:39:11.552Z,99758.45
2022-09-20T02:42:19.233Z,99761.14
2022-09-20T02:45:27.018Z,99759.52
2022-09-20T02:48:01.251Z,99765.11
2022-09-20T02:50:43.721Z,99767.39
2022-09-20T02:53:31.360Z,99768.09
2022-09-20T02:56:00.064Z,99766.60
2022-09-20T02:58:56.284Z,99771.25
2022-09-20T03:02:01.504Z,99774.42
2022-09-20T03:04:39.463Z,99776.54
2022-09-20T03:07:34.371Z,99778.06
2022-09-20T03:10:16.953Z,99783.06
2022-09-20T03:13:13.283Z,99780.53
2022-09-20T03:16:09.429Z,99780.41
2022-09-20T03:18:48.675Z,99784.96
2022-09-20T03:21:50.259Z,99784.52
2022-09-20T03:24:34.919Z,99790.66
2022-09-20T03:27:20.401Z,99790.31
2022-09-20T03:30:19.784Z,99787.50
2022-09-20T03:33:19.971Z,99787.07
2022-09-20T03:35:59.749Z,99789.44
2022-09-20T03:38:51.542Z,99787.23
2022-09-20T03:41:55.321Z,99787.89
2022-09-20T03:44:44.195Z,99792.16
2022-09-20T03:48:06.794Z,99796.62
2022-09-20T03:50:43.292Z,99798.01
2022-09-20T03:53:46.974Z,99793.77
2022-09-20T03:56:21.931Z,99795.59
2022-09-20T03:59:18.853Z,99795.35
2022-09-20T04:02:06.651Z,99800.77
2022-09-20T04:04:58.042Z,99804.05
2022-09-20T04:07:48.343Z,99803.58
2022-09-20T04:10:47.347Z,99798.70
2022-09-20T04:13:36.552Z,99796.73
2022-09-20T04:16:27.811Z,99801.29
2022-09-20T04:19:04.850Z,99804.90
2022-09-20T04:21:51.636Z,99807.98
2022-09-20T04:24:26.981Z,99806.05
2022-09-20T04:27:15.983Z,99809.87
2022-09-20T04:29:53.523Z,99817.02
2022-09-20T04:32:31.444Z,99821.37
2022-09-20T04:35:24.903Z,99828.80
2022-09-20T04:37:54.891Z,99827.23
2022-09-20T04:41:07.898Z,99828.19
2022-09-20T04:44:26.970Z,99831.58
2022-09-20T04:46:56.300Z,99834.68
2022-09-20T04:50:01.214Z,99838.70
2022-09-20T04:52:56.330Z,99843.19
2022-09-20T04:55:45.870Z,99844.90
2022-09-20T04:58:35.654Z,99847.94
2022-09-20T05:01:17.300Z,99850.81
2022-09-20T05:03:59.752Z,99849.01
2022-09-20T05:06:49.494Z,99850.81
2022-09-20T05:09:36.309Z,99853.63
2022-09-20T05:12:52.618Z,99857.61
2022-09-20T05:15:36.710Z,99858.05
2022-09-20T05:18:37.397Z,99861.73
2022-09-20T05:21:24.750Z,99861.34
2022-09-20T05:24:12.592Z,99870.64
2022-09-20T05:27:03.053Z,99875.33
2022-09-20T05:30:03.152Z,99871.69
2022-09-20T05:32:46.742Z,99874.00
2022-09-20T05:35:32.092Z,99868.88
2022-09-20T05:38:25.704Z,99873.86
2022-09-20T05:41:04.263Z,99869.69
2022-09-20T05:44:00.183Z,99870.03
2022-09-20T05:46:41.524Z,99880.52
2022-09-20T05:49:41.466Z,99882.86
2022-09-20T05:52:10.135Z,99881.77
2022-09-20T05:55:08.395Z,99886.23
2022-09-20T05:57:58.103Z,99886.54
2022-09-20T06:00:33.399Z,99884.55
2022-09-20T06:03:41.244Z,99885.77
2022-09-20T06:06:22.138Z,99885.14
2022-09-20T06:09:11.075Z,99890.51
2022-09-20T06:12:12.151Z,99889.17
2022-09-20T06:15:03.799Z,99886.02
2022-09-20T06:17:50.164Z,99886.26
2022-09-20T06:20:50.863Z,99883.00
2022-09-20T06:23:21.722Z,99892.48
2022-09-20T06:26:18.583Z,99889.50
2022-09-20T06:28:56.449Z,99892.10
2022-09-20T06:31:29.071Z,99892.94
2022-09-20T06:34:09.293Z,99896.67
2022-09-20T06:37:00.995Z,99892.29
2022-09-20T06:40:38.123Z,99892.98
2022-09-20T06:43:07.580Z,99889.00
2022-09-20T06:45:37.923Z,99894.66
2022-09-20T06:48:13.661Z,99897.84
2022-09-20T06:50:45.716Z,99898.52
2022-09-20T06:53:18.478Z,99904.71
2022-09-20T06:55:49.981Z,99903.70
2022-09-20T06:58:20.279Z,99899.39
2022-09-20T07:00:49.677Z,99902.29
2022-09-20T07:03:20.034Z,99905.35
2022-09-20T07:05:49.586Z,99909.17
2022-09-20T07:08:19.859Z,99914.83
2022-09-20T07:10:50.539Z,99919.61
2022-09-20T07:13:21.763Z,99923.14
2022-09-20T07:15:51.793Z,99928.37
2022-09-20T07:18:21.265Z,99925.80
2022-09-20T07:20:53.524Z,99935.27
2022-09-20T07:23:22.839Z,99940.17
2022-09-20T07:25:53.668Z,99946.92
2022-09-20T07:28:23.633Z,99946.51
2022-09-20T07:30:53.829Z,99947.13
2022-09-20T07:33:25.437Z,99944.83
2022-09-20T07:35:55.970Z,99949.13
2022-09-20T07:38:26.940Z,99951.64
2022-09-20T07:41:00.178Z,99947.61
2022-09-20T07:43:31.209Z,99951.46
2022-09-20T07:46:00.439Z,99959.00
2022-09-20T07:48:36.554Z,99958.88
2022-09-20T07:51:09.032Z,99955.48
2022-09-20T07:53:38.786Z,99964.02
2022-09-20T07:56:15.189Z,99962.08
2022-09-20T07:58:48.635Z,99966.71
2022-09-20T08:01:22.607Z,99964.03
2022-09-20T08:03:52.952Z,99964.23
2022-09-20T08:06:22.692Z,99962.52
2022-09-20T08:08:55.265Z,99967.95
2022-09-20T08:11:28.979Z,99967.31
2022-09-20T08:14:08.773Z,99971.90
2022-09-20T08:16:44.431Z,99971.77
2022-09-20T08:19:23.106Z,99973.77
2022-09-20T08:21:54.246Z,99975.02
2022-09-20T08:24:23.135Z,99969.38
2022-09-20T08:26:52.458Z,99974.88
2022-09-20T08:29:21.373Z,99976.63
2022-09-20T08:31:53.051Z,99974.31
2022-09-20T08:34:21.828Z,99972.88
2022-09-20T08:36:56.910Z,99969.02
2022-09-20T08:42:36.664Z,99976.13
2022-09-20T08:45:34.410Z,99974.44
2022-09-20T08:48:14.843Z,99976.04
2022-09-20T08:50:44.426Z,99980.63
2022-09-20T08:53:22.616Z,99976.92
2022-09-20T08:55:51.534Z,99983.75
2022-09-20T08:58:21.072Z,99977.55
2022-09-20T09:00:50.932Z,99985.64
2022-09-20T09:03:20.024Z,99983.38
2022-09-20T09:05:53.285Z,99983.40
2022-09-20T09:08:37.680Z,99980.61
2022-09-20T09:11:12.293Z,99980.59
2022-09-20T09:14:01.962Z,99981.85
2022-09-20T09:16:36.597Z,99983.92
2022-09-20T09:19:34.143Z,99986.41
2022-09-20T09:22:06.453Z,99987.00
2022-09-20T09:24:36.223Z,99982.38
2022-09-20T09:27:18.233Z,99975.31
2022-09-20T09:29:53.054Z,99980.66
2022-09-20T09:32:29.634Z,99982.41
2022-09-20T09:35:36.325Z,99978.20
2022-09-20T09:38:05.196Z,99984.94
2022-09-20T09:40:34.159Z,99980.77
2022-09-20T09:43:04.453Z,99982.98
2022-09-20T09:45:39.205Z,99984.65
2022-09-20T09:48:27.158Z,99984.48
2022-09-20T09:51:17.177Z,99981.11
2022-09-20T09:53:49.013Z,99989.80
2022-09-20T09:56:47.767Z,99990.11
2022-09-20T09:59:31.598Z,99987.31
2022-09-20T10:02:07.225Z,99987.01
2022-09-20T10:04:56.948Z,99990.77
2022-09-20T10:07:30.884Z,99992.96
2022-09-20T10:10:26.026Z,99987.99
2022-09-20T10:13:24.465Z,99986.61
2022-09-20T10:15:56.111Z,99990.04
2022-09-20T10:18:50.005Z,99985.75
2022-09-20T10:21:51.936Z,99987.08
2022-09-20T10:24:31.388Z,99993.58
2022-09-20T10:27:52.548Z,99987.45
2022-09-20T10:30:24.493Z,99988.61
2022-09-20T10:33:10.211Z,99987.16
2022-09-20T10:35:58.200Z,99990.17
2022-09-20T10:38:59.091Z,99995.77
2022-09-20T10:41:46.484Z,99996.08
2022-09-20T10:44:21.382Z,99995.95
2022-09-20T10:47:04.145Z,99997.36
2022-09-20T10:50:08.116Z,100006.24
2022-09-20T10:53:09.489Z,100004.76
2022-09-20T10:56:04.377Z,100005.73
2022-09-20T10:59:00.561Z,100007.29
2022-09-20T11:01:30.313Z,99999.95
2022-09-20T11:04:09.414Z,100001.17
2022-09-20T11:07:20.622Z,100001.89
2022-09-20T11:10:01.043Z,100000.61
2022-09-20T11:12:43.224Z,100001.65
2022-09-20T11:15:30.051Z,99997.92
2022-09-20T11:18:06.917Z,99995.80
2022-09-20T11:21:02.851Z,99997.31
2022-09-20T11:23:44.498Z,100002.71
2022-09-20T11:26:26.400Z,99997.92
2022-09-20T11:29:04.790Z,100001.48
2022-09-20T11:31:41.834Z,100002.13
2022-09-20T11:34:31.599Z,99995.21
2022-09-20T11:37:03.709Z,100000.78
2022-09-20T11:39:42.883Z,100002.77
2022-09-20T11:42:17.006Z,100002.56
2022-09-20T11:44:46.479Z,100009.20
2022-09-20T11:47:49.714Z,100010.47
2022-09-20T11:50:35.643Z,100006.33
2022-09-20T11:53:26.253Z,100006.70
2022-09-20T11:56:02.581Z,100007.36
2022-09-20T11:58:34.277Z,100014.80
2022-09-20T12:01:14.675Z,100013.57
2022-09-20T12:03:50.796Z,100019.58
2022-09-20T12:06:39.110Z,100016.49
2022-09-20T12:09:24.891Z,100021.84
2022-09-20T12:11:57.084Z,100023.96
2022-09-20T12:14:28.660Z,100025.23
2022-09-20T12:16:58.942Z,100025.77
2022-09-20T12:19:35.549Z,100025.39
2022-09-20T12:22:09.492Z,100032.36
2022-09-20T12:24:45.319Z,100042.02
2022-09-20T12:27:30.974Z,100040.52
2022-09-20T12:30:22.686Z,100035.23
2022-09-20T12:32:58.540Z,100026.91
2022-09-20T12:35:36.576Z,100027.95
2022-09-20T12:38:20.534Z,100030.02
2022-09-20T12:41:04.253Z,100030.39
2022-09-20T12:43:36.267Z,100034.52
2022-09-20T12:46:11.270Z,100036.81
2022-09-20T12:48:42.560Z,100036.85
2022-09-20T12:51:43.745Z,100039.77
2022-09-20T12:54:14.464Z,100045.86
2022-09-20T12:56:47.130Z,100053.83
2022-09-20T12:59:31.335Z,100060.44
2022-09-20T13:02:38.817Z,100068.05
2022-09-20T13:05:32.716Z,100070.73
2022-09-20T13:08:18.528Z,100076.96
2022-09-20T13:11:13.700Z,100081.59
2022-09-20T13:14:08.904Z,100084.73
2022-09-20T13:17:14.326Z,100087.08
2022-09-20T13:19:47.090Z,100094.46
2022-09-20T13:22:45.774Z,100096.22
2022-09-20T13:25:18.144Z,100097.92
2022-09-20T13:28:07.636Z,100097.62
2022-09-20T13:30:37.880Z,100101.09
2022-09-20T13:33:17.900Z,100103.80
2022-09-20T13:35:50.329Z,100107.13
2022-09-20T13:38:23.016Z,100104.74
2022-09-20T13:40:54.679Z,100106.04
2022-09-20T13:43:47.139Z,100107.16
2022-09-20T13:46:27.076Z,100107.51
2022-09-20T13:49:18.059Z,100105.52
2022-09-20T13:51:49.484Z,100107.64
2022-09-20T13:54:31.920Z,100109.59
2022-09-20T13:57:05.749Z,100112.14
2022-09-20T13:59:43.887Z,100111.14
2022-09-20T14:02:40.717Z,100110.90
2022-09-20T14:05:19.115Z,100114.90
2022-09-20T14:07:49.362Z,100113.11
2022-09-20T14:10:37.564Z,100116.36
2022-09-20T14:13:09.521Z,100121.89
2022-09-20T14:15:46.221Z,100119.33
2022-09-20T14:18:21.738Z,100121.67
2022-09-20T14:20:51.772Z,100122.69
2022-09-20T14:23:26.788Z,100122.05
2022-09-20T14:26:09.458Z,100121.48
2022-09-20T14:28:38.260Z,100117.02
2022-09-20T14:31:13.987Z,100114.04
2022-09-20T14:33:52.953Z,100107.24
2022-09-20T14:36:33.090Z,100109.67
2022-09-20T14:39:05.883Z,100111.84
2022-09-20T14:41:40.608Z,100110.42
2022-09-20T14:44:36.645Z,100111.47
2022-09-20T14:47:17.251Z,100112.86
2022-09-20T14:49:47.538Z,100113.92
2022-09-20T14:52:45.669Z,100112.33
2022-09-20T14:55:15.176Z,100114.84
2022-09-20T14:57:46.819Z,100122.43
2022-09-20T15:00:24.188Z,100122.36
2022-09-20T15:02:53.913Z,100125.64
2022-09-20T15:05:28.758Z,100124.77
2022-09-20T15:08:00.960Z,100123.89
2022-09-20T15:10:30.911Z,100123.92
2022-09-20T15:13:06.242Z,100121.19
2022-09-20T15:15:37.329Z,100124.95
2022-09-20T15:18:23.927Z,100123.05
2022-09-20T15:20:55.949Z,100123.52
2022-09-20T15:23:25.789Z,100125.58
2022-09-20T15:25:57.529Z,100128.48
2022-09-20T15:28:28.620Z,100138.42
2022-09-20T15:30:58.350Z,100138.96
2022-09-20T15:33:31.121Z,100138.69
2022-09-20T15:36:02.746Z,100139.30
2022-09-20T15:38:31.921Z,100141.86
2022-09-20T15:41:04.555Z,100141.65
2022-09-20T15:43:34.398Z,100143.79
2022-09-20T15:46:22.977Z,100148.27
2022-09-20T15:48:55.657Z,100148.67
2022-09-20T15:51:24.646Z,100152.92
2022-09-20T15:53:57.721Z,100156.23
2022-09-20T15:56:33.368Z,100158.55
2022-09-20T15:59:07.481Z,100165.85
2022-09-20T16:01:40.282Z,100169.27
2022-09-20T16:04:13.307Z,100171.20
2022-09-20T16:06:45.010Z,100175.63
2022-09-20T16:09:15.169Z,100178.89
2022-09-20T16:11:44.079Z,100179.94
2022-09-20T16:14:15.369Z,100183.77
2022-09-20T16:16:51.004Z,100188.98
2022-09-20T16:19:22.744Z,100191.42
2022-09-20T16:21:59.127Z,100193.96
2022-09-20T16:24:32.131Z,100195.23
2022-09-20T16:27:05.212Z,100196.17
2022-09-20T16:29:36.379Z,100200.00
2022-09-20T16:32:06.718Z,100205.67
2022-09-20T16:34:37.476Z,100212.17
2022-09-20T16:37:14.898Z,100217.45
2022-09-20T16:39:47.214Z,100220.61
2022-09-20T16:42:19.187Z,100230.80
2022-09-20T16:44:48.197Z,100228.31
2022-09-20T16:47:25.908Z,100230.68
2022-09-20T16:49:57.095Z,100233.86
2022-09-20T16:52:28.084Z,100233.10
2022-09-20T16:54:59.752Z,100237.00
2022-09-20T16:57:34.336Z,100242.64
2022-09-20T17:00:07.020Z,100245.27
2022-09-20T17:02:37.758Z,100246.97
2022-09-20T17:05:08.078Z,100251.77
2022-09-20T17:07:36.820Z,100254.27
2022-09-20T17:10:07.198Z,100252.52
2022-09-20T17:12:47.318Z,100257.09
2022-09-20T17:15:18.000Z,100258.19
2022-09-20T17:17:47.211Z,100255.95
2022-09-20T17:20:17.987Z,100263.30
2022-09-20T17:22:47.399Z,100272.02
2022-09-20T17:25:16.570Z,100273.67
2022-09-20T17:27:51.868Z,100270.86
2022-09-20T17:30:25.619Z,100275.98
2022-09-20T17:32:56.373Z,100277.48
2022-09-20T17:35:29.707Z,100280.03
2022-09-20T17:38:01.987Z,100285.35
2022-09-20T17:40:31.715Z,100286.86
2022-09-20T17:43:00.936Z,100293.20
2022-09-20T17:45:31.199Z,100286.07
2022-09-20T17:48:00.777Z,100291.89
2022-09-20T17:50:32.397Z,100292.14
2022-09-20T17:53:01.729Z,100291.46
2022-09-20T17:55:33.113Z,100291.66
2022-09-20T17:58:02.788Z,100291.36
2022-09-20T18:00:32.788Z,100288.61
2022-09-20T18:03:05.102Z,100292.25
2022-09-20T18:05:36.069Z,100293.98
2022-09-20T18:08:08.068Z,100289.41
2022-09-20T18:10:38.365Z,100295.49
2022-09-20T18:13:10.712Z,100296.59
2022-09-20T18:15:55.085Z,100299.89
2022-09-20T18:18:24.689Z,100300.77
2022-09-20T18:20:54.638Z,100301.70
2022-09-20T18:23:24.206Z,100302.17
2022-09-20T18:26:14.050Z,100304.27
2022-09-20T18:28:48.974Z,100305.25
2022-09-20T18:31:21.930Z,100311.38
2022-09-20T18:34:00.294Z,100313.02
2022-09-20T18:36:31.142Z,100315.20
2022-09-20T18:39:01.364Z,100319.01
2022-09-20T18:41:33.761Z,100321.98
2022-09-20T18:44:04.816Z,100323.15
2022-09-20T18:46:38.688Z,100324.09
2022-09-20T18:49:10.047Z,100321.70
2022-09-20T18:51:40.496Z,100318.13
2022-09-20T18:54:12.153Z,100318.44
2022-09-20T18:56:43.681Z,100319.27
2022-09-20T18:59:19.336Z,100323.21
2022-09-20T19:01:51.177Z,100327.35
2022-09-20T19:04:59.241Z,100330.06
2022-09-20T19:07:28.813Z,100333.03
2022-09-20T19:10:27.514Z,100333.68
2022-09-20T19:13:39.332Z,100339.58
2022-09-20T19:16:22.588Z,100342.10
2022-09-20T19:19:15.206Z,100346.23
2022-09-20T19:22:04.896Z,100348.31
2022-09-20T19:25:15.389Z,100351.09
2022-09-20T19:27:44.756Z,100356.02
2022-09-20T19:30:15.655Z,100359.90
2022-09-20T19:32:48.391Z,100359.30
2022-09-20T19:35:24.841Z,100361.88
2022-09-20T19:38:15.865Z,100365.17
2022-09-20T19:40:59.237Z,100364.29
2022-09-20T19:43:55.795Z,100366.12
2022-09-20T19:46:47.587Z,100369.14
2022-09-20T19:49:32.596Z,100372.30
2022-09-20T19:52:04.980Z,100375.55
2022-09-20T19:54:42.183Z,100382.20
2022-09-20T19:57:20.719Z,100383.77
2022-09-20T19:59:51.303Z,100387.63
2022-09-20T20:02:21.477Z,100389.66
2022-09-20T20:05:05.259Z,100390.95
2022-09-20T20:07:43.447Z,100390.27
2022-09-20T20:10:19.427Z,100388.68
2022-09-20T20:13:39.093Z,100389.32
2022-09-20T20:16:15.691Z,100394.61
2022-09-20T20:19:16.208Z,100393.86
2022-09-20T20:22:11.109Z,100394.00
2022-09-20T20:24:46.407Z,100395.89
2022-09-20T20:27:16.233Z,100401.23
2022-09-20T20:29:47.930Z,100400.36
2022-09-20T20:32:17.779Z,100402.98
2022-09-20T20:34:47.900Z,100403.28
2022-09-20T20:37:18.467Z,100402.10
2022-09-20T20:39:49.592Z,100407.88
2022-09-20T20:42:19.052Z,100409.16
2022-09-20T20:44:48.352Z,100407.27
2022-09-20T20:47:19.211Z,100410.67
2022-09-20T20:49:52.500Z,100409.45
2022-09-20T20:52:24.965Z,100411.77
2022-09-20T20:54:55.178Z,100412.11
2022-09-20T20:57:24.387Z,100408.84
2022-09-20T20:59:53.385Z,100409.77
2022-09-20T21:02:24.451Z,100408.39
2022-09-20T21:04:54.947Z,100408.30
2022-09-20T21:07:23.850Z,100411.60
2022-09-20T21:09:52.888Z,100413.77
2022-09-20T21:12:22.825Z,100419.66
2022-09-20T21:14:54.475Z,100421.29
2022-09-20T21:17:25.009Z,100421.20
2022-09-20T21:19:56.169Z,100420.54
2022-09-20T21:22:25.008Z,100421.05
2022-09-20T21:24:55.834Z,100423.70
2022-09-20T21:27:26.500Z,100421.23
2022-09-20T21:29:57.010Z,100417.27
2022-09-20T21:32:27.323Z,100419.95
2022-09-20T21:34:56.108Z,100422.77
2022-09-20T21:37:27.420Z,100423.04
2022-09-20T21:39:57.197Z,100425.23
2022-09-20T21:42:27.605Z,100427.86
2022-09-20T21:44:57.267Z,100424.15
2022-09-20T21:47:26.230Z,100424.23
2022-09-20T21:49:56.848Z,100430.52
2022-09-20T21:52:28.205Z,100431.45
2022-09-20T21:54:58.118Z,100428.41
2022-09-20T21:57:29.296Z,100429.25
2022-09-20T21:59:59.353Z,100434.34
2022-09-20T22:02:28.626Z,100432.95
2022-09-20T22:04:59.604Z,100435.66
2022-09-20T22:07:29.861Z,100434.10
2022-09-20T22:09:59.696Z,100433.92
2022-09-20T22:12:28.627Z,100435.90
2022-09-20T22:14:59.416Z,100436.40
2022-09-20T22:17:29.963Z,100438.27
2022-09-20T22:19:59.948Z,100437.84
2022-09-20T22:22:30.387Z,100438.75
2022-09-20T22:24:59.165Z,100440.98
2022-09-20T22:27:29.668Z,100442.57
2022-09-20T22:30:01.499Z,100442.48
2022-09-20T22:32:34.106Z,100446.23
2022-09-20T22:35:05.295Z,100446.36
2022-09-20T22:37:34.096Z,100449.06
2022-09-20T22:40:05.596Z,100450.46
2022-09-20T22:42:35.835Z,100448.27
2022-09-20T22:45:06.114Z,100445.64
2022-09-20T22:47:35.802Z,100438.44
2022-09-20T22:50:05.976Z,100437.27
2022-09-20T22:52:35.306Z,100440.92
2022-09-20T22:55:06.122Z,100448.00
2022-09-20T22:57:36.474Z,100448.26
2022-09-20T23:00:06.614Z,100448.79
2022-09-20T23:02:37.264Z,100450.55
2022-09-20T23:05:06.708Z,100443.27
2022-09-20T23:07:35.599Z,100447.46
2022-09-20T23:10:06.098Z,100447.27
2022-09-20T23:12:35.020Z,100451.77
2022-09-20T23:15:05.538Z,100449.36
2022-09-20T23:17:34.322Z,100450.55
2022-09-20T23:20:06.412Z,100450.19
2022-09-20T23:22:35.443Z,100451.67
2022-09-20T23:25:04.532Z,100450.19
2022-09-20T23:27:33.417Z,100452.02
2022-09-20T23:30:02.889Z,100454.66
2022-09-20T23:32:31.826Z,100460.17
2022-09-20T23:35:01.423Z,100459.59
2022-09-20T23:37:32.014Z,100461.89
2022-09-20T23:40:01.191Z,100466.59
2022-09-20T23:42:30.401Z,100461.54
2022-09-20T23:44:59.288Z,100468.23
2022-09-20T23:47:29.989Z,100470.20
2022-09-20T23:50:00.815Z,100468.83
2022-09-20T23:52:30.662Z,100469.66
2022-09-20T23:54:59.585Z,100470.64
2022-09-20T23:57:31.198Z,100466.83
